Date,TemperatureHighF,TemperatureAvgF,TemperatureLowF,DewpointHighF,DewpointAvgF,DewpointLowF,HumidityHigh,HumidityAvg,HumidityLow,PressureMaxIn,PressureMinIn,WindSpeedMaxMPH,WindSpeedAvgMPH,GustSpeedMaxMPH,PrecipitationSumIn
2013-1-1,50,49,47,49,43,31,95,80,50,30.12,29.93,6,0,10,0.25
2013-1-2,50,48,45,49,45,41,96,90,81,30.14,29.89,5,0,7,0.17
2013-1-3,45,42,34,42,39,32,94,90,85,30.26,30.09,2,0,5,0.00
2013-1-4,51,39,27,34,29,22,96,71,44,30.35,30.22,3,0,7,0.01
2013-1-5,51,41,26,35,28,22,88,60,41,30.40,30.22,1,0,5,0.00
2013-1-6,52,45,41,43,38,33,92,77,69,30.23,30.04,3,0,8,0.01
2013-1-7,53,43,31,35,32,29,92,67,46,30.42,30.19,7,0,8,0.00
2013-1-8,56,46,32,44,38,29,91,73,55,30.44,30.34,2,0,4,0.00
2013-1-9,66,54,38,53,46,36,94,76,59,30.44,30.35,2,0,5,0.00
2013-1-10,69,59,49,54,50,46,94,73,54,30.47,30.34,4,1,7,0.01
2013-1-11,54,51,48,52,50,47,96,95,89,30.33,30.14,3,0,7,0.00
2013-1-12,74,62,51,64,58,50,97,88,66,30.15,30.06,6,1,9,0.01
2013-1-13,74,64,58,64,60,56,94,85,67,30.11,30.02,5,0,10,0.00
2013-1-14,70,65,61,65,61,57,93,88,81,30.10,30.02,2,0,8,0.00
2013-1-15,64,53,46,61,51,45,96,92,88,30.14,30.03,5,1,7,0.00
2013-1-16,52,47,44,51,46,43,96,96,95,30.03,29.95,3,0,5,0.16
2013-1-17,52,48,33,51,46,32,96,95,92,30.16,29.72,9,2,21,1.64
2013-1-18,50,39,30,35,30,23,96,73,37,30.51,30.17,3,0,9,0.14
2013-1-19,56,39,26,33,28,24,93,69,37,30.48,30.23,2,0,5,0.00
2013-1-20,65,49,40,41,33,29,68,55,35,30.16,30.00,4,0,7,0.00
2013-1-21,60,48,32,37,31,19,92,56,31,30.06,29.91,7,1,10,0.00
2013-1-22,44,37,30,20,12,3,51,36,19,30.25,29.98,5,1,8,0.00
2013-1-23,47,35,22,29,17,7,75,48,34,30.37,30.06,6,0,9,0.00
2013-1-24,51,41,27,36,22,5,84,50,31,30.48,29.98,8,2,15,0.00
2013-1-25,27,25,22,24,16,7,93,69,45,30.50,30.13,3,0,5,0.01
2013-1-26,48,33,23,38,29,22,95,85,60,30.35,30.11,2,0,5,0.05
2013-1-27,46,37,28,31,29,25,93,73,52,30.56,30.36,3,0,6,0.00
2013-1-28,50,42,32,48,37,29,93,81,68,30.48,30.25,4,0,8,0.02
2013-1-29,72,59,44,60,54,42,95,82,63,30.25,30.02,6,1,10,0.00
2013-1-30,76,67,50,64,62,48,93,83,62,30.02,29.41,8,2,18,0.69
2013-1-31,50,45,39,47,29,21,91,56,37,30.03,29.54,8,2,18,0.01
2013-2-1,43,38,28,30,15,5,63,41,23,30.36,29.93,10,2,14,0.00
2013-2-2,48,36,22,36,18,9,87,51,28,30.39,30.05,7,1,18,0.00
2013-2-3,55,45,35,36,32,23,91,63,36,30.05,29.85,8,2,14,0.00
2013-2-4,51,40,28,30,27,23,84,60,39,30.14,30.00,2,0,7,0.00
2013-2-5,64,51,35,46,38,29,86,63,46,30.00,29.87,9,1,14,0.00
2013-2-6,65,52,36,45,35,26,95,60,27,30.20,29.96,3,0,7,0.00
2013-2-7,49,43,40,40,36,27,94,77,42,30.24,29.94,7,2,13,0.46
2013-2-8,60,47,39,49,40,31,95,77,46,30.08,29.85,10,2,14,0.05
2013-2-9,60,44,30,30,24,15,89,50,18,30.32,30.09,4,0,7,0.00
2013-2-10,60,47,36,48,31,20,94,55,29,30.43,30.18,2,0,6,0.15
2013-2-11,61,58,49,59,56,48,96,93,85,30.18,29.93,10,1,14,0.09
2013-2-12,61,53,45,51,40,29,95,65,31,30.08,29.90,4,0,7,0.04
2013-2-13,49,46,41,46,44,36,96,93,73,29.92,29.64,8,1,9,0.12
2013-2-14,53,43,32,39,35,30,94,75,57,30.06,29.86,3,0,6,0.00
2013-2-15,62,49,32,42,35,31,96,64,35,30.09,29.92,6,1,8,0.00
2013-2-16,48,36,27,37,33,24,95,87,66,29.99,29.81,5,0,8,0.14
2013-2-17,42,30,21,24,20,15,91,68,33,30.27,30.00,6,1,12,0.19
2013-2-18,56,40,23,32,25,16,85,55,36,30.39,30.22,4,0,7,0.03
2013-2-19,49,41,35,45,38,27,95,87,64,30.22,29.88,7,1,10,0.23
2013-2-20,55,44,30,31,22,15,78,44,24,30.11,30.00,5,0,8,0.00
2013-2-21,59,46,31,31,21,13,60,38,25,30.22,30.08,2,0,4,0.00
2013-2-22,48,39,37,37,35,25,95,87,43,30.28,30.09,6,1,8,0.26
2013-2-23,43,40,37,42,39,35,96,95,95,30.12,29.84,3,0,5,0.47
2013-2-24,64,50,42,46,40,29,97,72,38,30.00,29.83,6,1,7,0.00
2013-2-25,48,42,39,30,28,25,66,58,46,30.15,29.99,7,2,11,0.00
2013-2-26,47,40,34,46,38,27,96,93,62,30.05,29.56,6,1,10,1.07
2013-2-27,57,48,36,42,39,35,96,72,55,29.81,29.66,7,1,11,0.00
2013-2-28,51,44,35,35,31,27,90,61,43,29.88,29.71,8,1,11,0.00
2013-3-1,48,40,29,34,30,26,87,67,53,29.93,29.85,5,1,9,0.00
2013-3-2,44,38,33,39,32,26,94,80,65,29.93,29.82,5,0,7,0.21
2013-3-3,47,36,24,27,22,19,90,62,36,30.00,29.88,7,1,9,0.01
2013-3-4,55,40,24,26,21,18,79,48,26,30.14,30.01,7,1,8,0.00
2013-3-5,59,48,40,53,39,24,95,71,50,30.07,29.59,4,0,9,0.33
2013-3-6,50,42,34,46,28,23,94,57,42,30.11,29.59,9,3,17,0.00
2013-3-7,56,42,27,36,29,25,90,62,39,30.25,30.11,10,1,12,0.00
2013-3-8,57,44,29,32,26,23,82,52,30,30.32,30.18,6,1,11,0.00
2013-3-9,64,49,36,37,31,26,70,51,31,30.34,30.21,4,1,7,0.00
2013-3-10,70,54,39,43,37,33,85,56,31,30.28,30.14,3,0,8,0.00
2013-3-11,71,57,44,55,44,20,92,63,36,30.18,29.84,11,0,11,0.07
2013-3-12,70,61,49,59,51,30,95,72,36,29.95,29.73,5,1,14,0.64
2013-3-13,59,47,37,34,29,20,80,51,32,30.14,29.95,9,1,14,0.00
2013-3-14,55,42,29,24,20,18,69,44,26,30.28,30.14,6,1,10,0.00
2013-3-15,67,49,31,42,31,19,72,51,37,30.21,29.90,6,1,11,0.00
2013-3-16,77,67,57,51,44,40,62,46,31,29.90,29.70,9,2,16,0.00
2013-3-17,78,62,48,56,46,40,78,57,39,30.05,29.82,6,1,12,0.00
2013-3-18,47,43,40,43,41,39,95,92,78,30.10,29.84,5,1,11,0.60
2013-3-19,67,53,41,48,36,19,96,62,18,30.02,29.84,6,2,15,0.00
2013-3-20,57,48,39,27,19,13,47,32,22,30.09,29.76,3,0,9,0.00
2013-3-21,49,41,31,29,16,11,58,38,26,29.96,29.76,6,1,14,0.00
2013-3-22,53,38,26,28,19,13,72,47,30,30.09,29.96,5,1,8,0.00
2013-3-23,49,43,40,44,37,28,93,79,54,30.05,29.89,1,0,5,0.03
2013-3-24,43,41,39,42,39,37,95,94,92,29.91,29.54,7,2,12,0.81
2013-3-25,48,42,38,39,30,21,95,66,39,29.89,29.55,11,2,15,0.02
2013-3-26,48,40,30,29,26,23,79,58,44,30.17,29.89,4,1,11,0.00
2013-3-27,55,43,28,32,26,22,83,52,32,30.25,30.16,7,1,15,0.00
2013-3-28,58,45,29,32,25,19,78,48,27,30.30,30.17,5,1,10,0.00
2013-3-29,62,48,30,37,28,22,85,50,28,30.34,30.17,6,1,9,0.00
2013-3-30,66,56,46,51,46,38,95,70,45,30.21,30.04,2,0,7,0.12
2013-3-31,71,59,50,60,53,47,95,80,55,30.03,29.79,10,1,16,0.31
2013-4-1,74,64,53,57,48,37,95,62,29,29.92,29.81,5,1,13,0.02
2013-4-2,65,55,44,43,36,22,76,51,27,30.13,29.93,7,1,11,0.00
2013-4-3,62,54,46,31,24,17,37,31,25,30.24,30.08,6,1,11,0.00
2013-4-4,53,42,37,38,34,23,95,77,36,30.24,29.94,8,2,11,0.95
2013-4-5,65,50,37,50,43,36,95,79,51,30.02,29.89,4,0,8,0.00
2013-4-6,70,56,40,43,39,36,91,56,31,30.20,30.02,4,0,6,0.00
2013-4-7,72,60,42,53,47,37,83,64,46,30.24,30.08,5,1,8,0.00
2013-4-8,78,67,53,59,55,51,94,68,44,30.15,30.03,6,1,10,0.00
2013-4-9,83,70,54,64,58,52,94,68,46,30.17,30.05,4,1,9,0.00
2013-4-10,85,73,60,65,61,58,93,67,43,30.08,29.92,6,1,10,0.00
2013-4-11,82,71,60,68,63,57,94,77,56,29.95,29.72,6,1,9,0.02
2013-4-12,81,71,62,68,60,42,95,72,27,29.78,29.60,9,2,13,0.27
2013-4-13,76,66,46,50,43,37,87,46,27,29.99,29.79,5,1,8,0.00
2013-4-14,77,64,47,56,47,38,84,56,33,30.05,29.95,2,0,5,0.00
2013-4-15,73,66,58,62,59,54,93,80,64,30.15,29.94,2,0,5,0.03
2013-4-16,80,69,60,66,61,58,94,77,54,30.26,30.15,4,0,6,0.00
2013-4-17,85,71,59,69,62,57,94,74,47,30.22,30.06,5,0,8,0.00
2013-4-18,83,72,62,67,63,59,93,74,52,30.13,29.96,4,0,7,0.00
2013-4-19,81,68,54,70,63,51,94,87,64,29.96,29.71,7,1,17,0.43
2013-4-20,64,55,44,51,40,33,92,60,32,30.23,29.87,2,0,7,0.00
2013-4-21,66,54,42,45,41,37,90,64,43,30.41,30.23,5,1,9,0.00
2013-4-22,65,54,42,41,35,29,82,53,26,30.39,30.19,5,1,9,0.00
2013-4-23,70,58,50,55,48,39,89,72,58,30.23,30.08,3,0,6,0.00
2013-4-24,75,62,51,62,55,49,95,79,55,30.13,29.98,5,1,15,0.00
2013-4-25,72,64,54,59,46,37,91,55,30,30.23,30.02,3,0,8,0.00
2013-4-26,74,64,49,49,40,34,74,43,27,30.40,30.22,5,0,9,0.00
2013-4-27,68,59,55,57,52,45,94,77,59,30.33,30.21,1,0,3,0.26
2013-4-28,60,56,54,59,55,53,96,95,94,30.22,30.03,2,0,6,1.36
2013-4-29,73,63,57,66,60,56,96,90,68,30.03,29.91,2,0,5,0.20
2013-4-30,74,64,59,64,60,56,95,87,68,30.13,29.95,5,0,9,0.00
2013-5-1,66,61,53,59,56,52,94,86,76,30.24,30.12,4,1,9,20.73
2013-5-2,64,60,57,60,57,56,95,92,84,30.26,30.18,1,0,2,0.04
2013-5-3,69,61,55,57,54,45,91,78,60,30.19,30.07,3,0,10,0.00
2013-5-4,64,56,50,53,49,44,86,77,64,30.09,29.95,7,2,13,0.00
2013-5-5,60,55,52,58,53,49,95,91,83,29.98,29.81,5,2,11,0.40
2013-5-6,71,64,56,63,56,48,96,79,46,29.87,29.79,6,1,15,0.91
2013-5-7,70,59,46,57,51,45,94,77,57,29.93,29.84,4,0,9,0.04
2013-5-8,76,64,51,61,56,50,95,77,53,29.98,29.89,5,0,9,0.16
2013-5-9,81,69,54,65,59,53,96,72,44,30.05,29.96,5,0,6,0.00
2013-5-10,83,73,59,66,61,56,91,68,48,30.04,29.91,5,1,9,0.00
2013-5-11,79,72,63,70,63,60,93,75,59,29.93,29.77,5,1,10,0.23
2013-5-12,74,65,56,62,51,35,94,64,26,30.00,29.80,7,1,11,0.01
2013-5-13,68,59,45,47,40,33,89,51,32,30.14,30.01,7,1,9,0.00
2013-5-14,72,61,42,50,43,36,90,52,33,30.24,30.05,6,1,7,0.00
2013-5-15,88,73,55,65,58,46,84,61,43,30.06,29.90,6,1,8,0.00
2013-5-16,83,74,62,65,61,57,85,64,48,29.99,29.90,6,0,8,0.00
2013-5-17,86,73,61,68,63,59,93,72,47,30.04,29.96,5,0,7,0.00
2013-5-18,74,70,66,67,64,62,91,82,72,30.10,30.02,4,0,7,0.00
2013-5-19,78,69,66,70,66,64,95,91,73,30.08,30.00,3,0,5,0.39
2013-5-20,80,72,67,73,68,65,96,88,71,30.08,29.97,2,0,4,0.11
2013-5-21,84,72,66,76,68,65,95,89,66,30.02,29.90,2,0,7,0.23
2013-5-22,85,74,66,73,67,63,95,81,59,29.98,29.84,2,0,6,0.27
2013-5-23,79,70,64,71,65,62,95,87,69,29.93,29.79,4,0,6,0.26
2013-5-24,74,68,56,64,53,40,94,62,36,30.16,29.83,7,1,11,0.00
2013-5-25,76,62,44,51,45,38,92,57,33,30.29,30.12,4,0,7,0.00
2013-5-26,75,65,57,54,48,41,80,54,40,30.25,30.14,4,0,7,0.00
2013-5-27,82,70,55,63,57,51,91,67,41,30.24,30.11,3,0,8,0.00
2013-5-28,84,74,63,70,65,61,93,73,54,30.21,30.11,4,0,8,0.00
2013-5-29,85,74,61,70,64,59,94,71,50,30.22,30.11,3,0,7,0.00
2013-5-30,86,75,61,68,64,59,94,71,48,30.25,30.12,3,0,6,0.00
2013-5-31,86,76,66,71,67,64,95,75,52,30.19,30.06,4,0,7,0.00
2013-6-1,86,76,67,70,67,65,94,75,51,30.10,29.97,5,1,8,0.00
2013-6-2,85,75,68,73,68,66,95,79,58,30.02,29.85,4,1,8,2.02
2013-6-3,83,73,67,74,69,66,96,89,60,29.92,29.80,3,0,7,0.60
2013-6-4,85,76,66,71,68,65,95,75,60,30.02,29.90,3,0,6,0.01
2013-6-5,81,72,67,72,68,65,95,88,73,30.05,29.94,3,0,6,0.17
2013-6-6,76,72,68,74,70,67,95,94,90,29.95,29.77,3,0,5,0.47
2013-6-7,81,71,67,73,68,65,96,92,76,29.81,29.57,4,0,11,0.79
2013-6-8,83,73,67,74,68,65,96,86,67,30.05,29.79,4,0,6,0.01
2013-6-9,87,74,67,74,70,66,95,86,61,30.11,30.02,3,0,7,0.04
2013-6-10,84,74,69,75,71,67,95,91,72,30.04,29.87,6,1,11,1.10
2013-6-11,85,77,68,73,69,65,95,76,52,29.95,29.89,4,1,9,0.00
2013-6-12,90,80,66,77,72,65,94,75,59,29.97,29.84,6,0,8,0.00
2013-6-13,92,83,70,76,73,69,95,73,50,29.84,29.62,9,1,11,0.31
2013-6-14,84,72,60,69,62,57,95,72,41,29.98,29.72,2,0,7,0.01
2013-6-15,83,72,60,66,62,58,95,72,48,30.10,29.99,5,0,6,0.00
2013-6-16,85,75,63,71,67,61,92,76,57,30.12,29.98,6,0,10,0.00
2013-6-17,85,75,70,75,70,66,95,83,66,30.01,29.89,5,0,7,0.04
2013-6-18,84,76,70,75,71,68,95,86,70,29.94,29.75,7,1,10,0.11
2013-6-19,86,77,69,70,67,62,95,73,48,30.05,29.85,3,0,8,0.01
2013-6-20,84,76,66,69,66,64,93,72,55,30.18,30.06,2,0,6,0.00
2013-6-21,84,76,64,67,63,59,85,65,52,30.22,30.13,4,0,9,0.00
2013-6-22,86,76,63,71,67,59,89,74,59,30.17,30.07,4,0,6,0.00
2013-6-23,86,76,69,75,70,67,94,84,60,30.16,30.08,4,0,5,0.00
2013-6-24,84,76,70,77,72,69,95,88,73,30.18,30.07,2,0,7,0.03
2013-6-25,89,78,71,76,72,69,95,81,57,30.10,29.98,5,0,8,0.00
2013-6-26,90,79,70,77,72,68,95,81,58,30.01,29.86,5,0,10,0.00
2013-6-27,88,79,71,77,73,68,95,83,63,29.91,29.68,4,1,10,0.02
2013-6-28,92,81,72,76,73,70,95,79,52,29.71,29.55,5,0,11,0.03
2013-6-29,87,77,71,75,71,69,94,83,61,29.68,29.58,3,0,6,0.01
2013-6-30,85,74,66,75,70,64,95,89,69,29.80,29.66,3,0,9,1.41
2013-7-1,81,73,66,75,70,65,97,91,77,29.94,29.78,2,0,6,0.14
2013-7-2,78,73,71,74,71,69,96,93,82,30.10,29.94,3,0,10,0.13
2013-7-3,80,75,72,76,73,71,97,93,84,30.17,30.08,1,0,8,0.17
2013-7-4,88,77,72,77,73,71,97,88,61,30.20,30.11,4,0,7,0.13
2013-7-5,85,77,73,76,74,71,96,88,71,30.20,30.13,2,0,6,0.01
2013-7-6,84,76,71,78,73,70,97,91,75,30.20,30.07,2,0,6,0.26
2013-7-7,85,76,72,79,74,70,97,92,76,30.14,30.02,5,0,6,0.56
2013-7-8,84,77,71,77,73,70,98,89,69,30.14,30.06,1,0,6,0.12
2013-7-9,89,79,73,80,74,71,96,85,66,30.12,30.01,2,0,6,0.00
2013-7-10,86,78,70,77,73,69,97,87,71,30.08,29.91,2,0,7,0.00
2013-7-11,78,74,70,76,72,69,97,95,87,29.93,29.83,1,0,4,1.13
2013-7-12,81,74,70,74,71,69,98,92,75,29.96,29.83,3,0,6,0.00
2013-7-13,80,74,70,74,71,68,96,89,78,30.06,29.95,3,0,5,0.09
2013-7-14,85,77,70,76,72,69,97,87,67,30.23,30.04,4,0,7,0.53
2013-7-15,89,80,71,75,72,70,96,79,58,30.27,30.19,2,0,6,0.00
2013-7-16,91,82,71,78,74,69,97,78,57,30.26,30.16,1,0,5,0.00
2013-7-17,91,79,71,79,74,69,95,86,65,30.19,30.08,3,0,4,0.00
2013-7-18,90,80,68,79,74,67,97,81,63,30.13,30.02,2,0,6,0.00
2013-7-19,90,82,73,78,75,72,96,81,64,30.07,29.95,3,0,6,0.00
2013-7-20,85,78,74,78,74,72,95,88,77,30.00,29.88,2,0,6,0.00
2013-7-21,89,77,73,79,73,71,96,88,66,29.98,29.86,2,0,6,0.07
2013-7-22,87,76,70,77,73,70,97,89,71,29.95,29.80,3,0,7,0.02
2013-7-23,88,80,73,76,73,71,95,80,61,29.82,29.72,4,1,8,0.00
2013-7-24,94,81,70,76,72,69,96,77,46,29.86,29.70,3,0,5,0.42
2013-7-25,85,76,69,72,70,68,97,82,61,30.03,29.82,1,0,4,0.01
2013-7-26,86,77,68,73,70,66,95,79,59,30.12,30.02,1,0,4,0.00
2013-7-27,80,74,70,75,71,69,96,92,80,30.05,29.93,3,0,4,0.21
2013-7-28,87,77,70,75,72,69,96,85,61,30.00,29.93,3,0,7,0.01
2013-7-29,90,80,70,74,70,68,96,74,52,30.16,30.01,2,0,4,0.00
2013-7-30,87,78,69,72,68,65,96,73,52,30.22,30.13,2,0,4,0.00
2013-7-31,83,75,71,74,70,-100,97,85,73,30.16,30.01,3,-7,8,0.46
2013-8-1,87,76,70,77,72,69,97,89,66,30.01,29.89,1,0,5,0.04
2013-8-2,88,79,69,76,72,68,97,79,60,30.04,29.93,3,0,4,0.00
2013-8-3,88,81,73,78,74,72,97,80,60,30.03,29.95,2,0,8,0.00
2013-8-4,89,80,70,74,70,66,96,73,51,30.03,29.93,2,0,5,0.00
2013-8-5,87,77,70,72,68,66,91,74,51,30.08,29.99,2,0,5,0.00
2013-8-6,74,70,68,71,68,66,97,91,80,30.09,29.99,3,0,6,0.85
2013-8-7,85,76,69,74,70,68,97,84,62,30.11,30.03,1,0,5,0.00
2013-8-8,87,78,72,77,73,70,94,84,67,30.08,30.00,2,0,5,0.00
2013-8-9,89,79,73,79,75,72,96,87,69,30.09,30.01,3,0,8,0.21
2013-8-10,91,80,73,81,75,72,97,85,66,30.11,30.04,5,0,7,0.00
2013-8-11,93,80,72,79,74,71,96,82,59,30.13,30.04,6,0,8,0.01
2013-8-12,93,82,71,78,74,70,97,78,56,30.07,29.95,2,0,9,0.00
2013-8-13,89,79,72,79,74,70,96,84,64,29.98,29.81,3,1,10,0.21
2013-8-14,77,73,68,71,65,60,96,77,57,30.08,29.87,2,0,5,0.00
2013-8-15,77,70,63,63,59,57,89,69,53,30.16,30.07,3,1,7,0.00
2013-8-16,68,65,62,64,60,58,95,86,75,30.18,30.09,4,0,8,0.10
2013-8-17,66,64,61,65,63,60,97,96,81,30.20,30.14,2,0,5,0.74
2013-8-18,84,73,66,75,69,65,98,89,67,30.24,30.14,2,0,5,0.02
2013-8-19,77,72,69,72,70,67,97,93,81,30.20,30.10,1,0,2,0.58
2013-8-20,82,73,66,74,70,65,97,89,77,30.21,30.12,1,0,2,0.00
2013-8-21,87,76,71,78,73,69,97,90,71,30.25,30.12,2,0,10,0.71
2013-8-22,89,79,69,77,73,68,98,82,58,30.17,30.02,2,0,6,0.01
2013-8-23,88,77,68,75,71,67,98,82,58,30.07,29.96,2,0,5,0.00
2013-8-24,83,74,66,69,64,60,90,73,49,30.30,30.07,3,0,8,0.00
2013-8-25,82,72,60,67,61,58,95,71,45,30.40,30.28,3,0,6,0.00
2013-8-26,83,69,57,66,61,56,96,78,53,30.33,30.14,2,0,3,0.00
2013-8-27,88,76,65,73,67,61,91,77,56,30.17,30.00,2,0,6,0.00
2013-8-28,90,78,69,77,72,67,96,81,61,30.03,29.93,4,0,5,0.00
2013-8-29,94,82,74,76,73,71,91,75,49,29.97,29.88,3,0,6,0.00
2013-8-30,89,78,71,72,69,65,93,74,50,30.06,29.95,3,0,5,0.00
2013-8-31,88,77,69,77,72,67,95,83,66,29.98,29.86,5,0,6,0.00
2013-9-1,90,77,69,78,72,68,96,85,64,29.93,29.80,5,0,11,0.01
2013-9-2,90,78,71,78,73,69,97,85,63,29.93,29.82,2,0,6,0.00
2013-9-3,91,80,72,75,72,68,97,78,48,29.96,29.83,2,0,6,0.00
2013-9-4,89,78,67,69,66,62,89,69,43,30.09,29.96,3,0,4,0.00
2013-9-5,88,77,67,72,68,65,95,75,51,30.12,30.05,2,0,5,0.00
2013-9-6,87,76,67,66,62,59,91,65,43,30.19,30.08,4,0,7,0.00
2013-9-7,87,74,64,68,64,59,90,72,49,30.14,30.00,2,0,7,0.00
2013-9-8,90,76,64,71,66,62,96,73,47,30.00,29.93,2,0,4,0.00
2013-9-9,91,78,67,70,66,64,95,70,42,30.15,30.00,3,0,4,0.00
2013-9-10,92,79,68,74,69,66,96,75,48,30.25,30.15,2,0,5,0.00
2013-9-11,92,78,67,72,68,65,96,74,46,30.23,30.09,2,0,5,0.00
2013-9-12,91,78,68,73,69,66,91,75,52,30.09,29.85,4,0,7,0.00
2013-9-13,88,76,68,69,63,53,96,66,38,29.91,29.78,4,0,6,0.00
2013-9-14,80,70,60,59,54,50,74,60,46,30.12,29.91,3,0,8,0.00
2013-9-15,84,72,61,67,62,55,83,71,54,30.23,30.11,2,0,4,0.00
2013-9-16,89,77,71,73,67,59,96,73,41,30.15,30.05,2,0,5,0.00
2013-9-17,78,71,65,65,58,54,75,63,48,30.31,30.16,3,1,9,0.00
2013-9-18,78,67,58,57,54,52,85,66,47,30.31,30.18,2,0,5,0.00
2013-9-19,81,68,59,64,59,54,88,74,55,30.21,30.10,1,0,3,0.00
2013-9-20,87,73,63,70,65,61,93,78,52,30.11,29.93,1,0,4,0.00
2013-9-21,76,71,66,71,68,64,96,90,80,29.94,29.64,5,0,9,1.00
2013-9-22,79,68,59,65,59,56,97,75,47,29.92,29.66,3,0,7,0.18
2013-9-23,77,66,57,60,57,54,92,76,52,30.08,29.92,3,0,5,0.00
2013-9-24,80,68,58,63,59,55,91,74,50,30.10,29.96,1,0,4,0.00
2013-9-25,69,64,60,64,61,59,96,89,78,29.97,29.89,2,0,3,0.28
2013-9-26,77,67,59,64,59,53,97,77,50,30.05,29.89,2,0,5,0.01
2013-9-27,77,65,55,60,55,53,93,72,49,30.19,30.04,3,0,8,0.00
2013-9-28,74,63,55,57,54,52,93,73,51,30.27,30.17,6,0,8,0.00
2013-9-29,74,64,56,59,56,52,91,76,51,30.19,30.05,3,0,5,0.00
2013-9-30,77,63,53,61,56,52,96,78,51,30.13,30.03,0,0,3,0.00
2013-10-1,83,67,54,64,58,52,97,76,47,30.16,30.06,3,0,7,0.00
2013-10-2,84,70,58,66,61,56,96,77,48,30.17,30.08,2,0,4,0.00
2013-10-3,85,71,62,67,63,60,95,77,47,30.16,30.08,2,0,6,0.00
2013-10-4,86,72,61,68,64,59,97,77,48,30.17,30.08,2,0,6,0.00
2013-10-5,88,74,62,69,65,60,96,76,47,30.15,30.04,2,0,3,0.00
2013-10-6,86,74,63,70,66,61,95,77,53,30.07,29.91,1,0,4,0.00
2013-10-7,78,71,66,72,68,55,96,89,68,30.00,29.83,2,0,7,0.22
2013-10-8,66,62,59,55,50,47,71,67,62,30.21,30.00,5,1,10,0.00
2013-10-9,72,62,52,54,50,46,82,66,52,30.23,30.13,4,0,8,0.00
2013-10-10,72,64,55,63,56,49,85,77,67,30.13,29.99,3,0,4,0.00
2013-10-11,80,70,61,63,60,57,87,72,50,30.02,29.93,2,0,5,0.00
2013-10-12,76,67,58,64,62,56,96,82,64,30.09,29.97,1,0,3,0.00
2013-10-13,69,66,64,63,62,61,91,87,81,30.22,30.10,4,0,5,0.00
2013-10-14,68,64,60,63,61,58,95,89,82,30.25,30.17,4,0,6,0.02
2013-10-15,75,65,58,59,55,51,92,73,43,30.21,30.06,3,0,6,0.00
2013-10-16,74,63,53,63,58,52,96,84,62,30.10,29.97,3,0,4,0.00
2013-10-17,71,65,61,65,63,59,97,91,79,30.00,29.89,2,0,9,0.05
2013-10-18,68,63,58,65,59,54,97,85,71,30.05,29.91,2,0,4,0.00
2013-10-19,68,62,56,62,58,54,96,86,68,29.98,29.86,1,0,5,0.00
2013-10-20,69,56,47,53,47,43,96,74,43,30.13,29.94,4,0,5,0.00
2013-10-21,70,56,42,55,49,41,96,78,52,30.18,30.03,2,0,5,0.00
2013-10-22,65,60,56,60,57,54,96,89,76,30.05,29.84,1,0,3,0.01
2013-10-23,67,58,43,57,46,33,97,69,32,30.06,29.75,9,1,14,0.00
2013-10-24,62,50,35,45,37,33,94,65,42,30.21,30.07,4,0,7,0.00
2013-10-25,55,48,39,41,34,29,80,60,41,30.42,30.20,5,0,8,0.00
2013-10-26,60,47,30,37,33,28,94,61,36,30.41,30.14,6,0,8,0.00
2013-10-27,71,55,39,49,44,37,93,68,45,30.18,30.09,2,0,6,0.00
2013-10-28,69,57,50,60,54,48,96,89,67,30.29,30.14,0,0,2,0.04
2013-10-29,74,61,50,60,54,49,97,80,49,30.37,30.26,1,0,3,0.00
2013-10-30,79,64,52,60,56,50,96,77,49,30.32,30.18,2,0,7,0.00
2013-10-31,72,65,58,65,59,55,93,81,66,30.20,29.94,2,0,6,0.00
2013-11-1,69,65,58,66,62,57,97,92,83,29.93,29.69,3,0,7,0.43
2013-11-2,70,58,49,58,51,42,98,81,39,30.00,29.75,3,0,9,0.01
2013-11-3,62,50,40,44,39,36,93,68,41,30.37,30.01,4,0,7,0.00
2013-11-4,60,49,36,39,35,33,94,62,37,30.55,30.37,4,0,5,0.00
2013-11-5,59,50,39,49,42,32,84,73,63,30.58,30.45,2,0,5,0.00
2013-11-6,73,60,49,58,52,47,93,76,58,30.45,30.10,3,0,4,0.00
2013-11-7,70,58,47,62,50,34,97,80,44,30.11,29.93,3,0,9,0.00
2013-11-8,60,49,39,35,31,25,80,52,27,30.31,30.11,4,0,7,0.00
2013-11-9,60,46,32,37,33,30,94,62,35,30.38,30.21,6,0,6,0.00
2013-11-10,72,55,42,43,37,34,84,54,29,30.22,30.10,2,0,5,0.00
2013-11-11,62,51,40,37,32,28,72,50,31,30.33,30.14,2,0,5,0.00
2013-11-12,66,48,33,43,36,20,94,65,33,30.44,30.05,4,1,17,0.08
2013-11-13,47,36,27,25,21,18,80,57,34,30.55,30.43,2,0,8,0.00
2013-11-14,59,42,25,30,25,23,92,57,27,30.50,30.34,2,0,8,0.00
2013-11-15,61,50,33,52,41,25,94,71,51,30.35,30.19,1,0,2,0.02
2013-11-16,65,56,50,58,53,49,96,91,78,30.25,30.17,0,0,2,0.00
2013-11-17,71,61,53,64,58,51,98,91,72,30.19,29.90,2,0,4,0.10
2013-11-18,76,67,54,67,54,33,97,68,33,29.95,29.81,5,1,9,0.11
2013-11-19,58,50,43,36,28,24,57,43,32,30.25,29.95,5,1,8,0.00
2013-11-20,54,46,37,36,33,29,73,61,49,30.43,30.24,6,1,10,0.00
2013-11-21,61,51,44,48,42,34,79,70,59,30.47,30.36,3,0,6,0.00
2013-11-22,67,59,52,60,54,45,92,83,74,30.37,30.10,3,0,7,0.00
2013-11-23,60,56,44,58,47,23,97,74,40,30.17,30.03,2,0,8,0.01
2013-11-24,44,36,29,25,13,6,52,39,24,30.52,30.17,6,1,10,0.00
2013-11-25,45,34,22,16,12,8,74,44,27,30.58,30.34,1,0,3,0.00
2013-11-26,47,40,33,46,33,12,98,82,33,30.34,29.60,5,0,9,1.70
2013-11-27,46,40,28,46,35,20,98,86,59,30.20,29.54,9,1,12,0.29
2013-11-28,47,33,21,27,23,19,93,68,42,30.49,30.21,2,0,5,0.00
2013-11-29,53,39,26,31,26,23,93,64,36,30.59,30.47,4,0,7,0.00
2013-11-30,48,38,30,29,26,24,79,64,44,30.63,30.37,4,1,9,0.00
2013-12-1,55,43,31,43,35,28,90,75,56,30.37,30.02,1,0,5,0.00
2013-12-2,59,47,36,45,39,34,96,76,50,30.02,29.81,4,0,5,0.00
2013-12-3,61,54,47,54,49,41,95,83,72,29.96,29.86,2,0,8,0.03
2013-12-4,64,59,53,61,57,51,98,94,86,30.08,29.93,1,0,3,0.02
2013-12-5,65,62,59,64,62,58,98,98,97,30.11,30.01,2,0,7,0.10
2013-12-6,76,69,62,67,64,60,98,85,70,30.06,29.95,5,1,12,0.00
2013-12-7,68,55,46,65,51,39,96,86,76,30.39,29.98,8,1,12,0.05
2013-12-8,46,38,35,39,36,34,96,90,75,30.40,30.28,6,1,9,0.11
2013-12-9,46,41,35,46,40,34,98,98,96,30.27,30.05,1,0,3,0.17
2013-12-10,54,47,32,51,43,26,98,86,48,30.32,29.89,5,1,12,0.12
2013-12-11,51,38,26,31,27,24,95,68,38,30.45,30.30,1,0,5,0.00
2013-12-12,49,38,28,29,23,15,93,60,31,30.42,30.28,6,1,8,0.00
2013-12-13,53,38,25,32,27,18,87,65,39,30.39,30.27,3,0,7,0.00
2013-12-14,51,43,40,48,38,29,97,83,61,30.27,29.78,4,0,9,0.77
2013-12-15,55,44,33,45,37,28,98,79,44,30.10,29.74,9,0,11,0.02
2013-12-16,57,43,29,37,33,27,91,69,43,30.18,30.09,5,0,7,0.00
2013-12-17,62,50,36,41,36,31,82,60,40,30.14,29.94,5,1,14,0.00
2013-12-18,52,44,33,36,22,17,64,43,26,30.28,30.04,4,0,8,0.00
2013-12-19,63,47,33,31,27,21,75,49,24,30.34,30.23,8,0,8,0.00
2013-12-20,63,54,43,54,46,32,93,76,60,30.24,30.13,5,0,7,0.00
2013-12-21,72,61,49,65,57,47,96,87,72,30.14,30.00,4,0,8,0.00
2013-12-22,73,67,63,69,65,62,98,94,82,30.07,29.97,2,0,12,0.96
2013-12-23,63,59,48,63,57,38,98,94,70,30.14,29.98,9,0,11,1.48
2013-12-24,49,42,32,36,28,17,79,60,44,30.43,30.13,7,1,10,0.01
2013-12-25,41,32,25,22,16,11,68,52,34,30.56,30.40,4,0,9,0.00
2013-12-26,53,41,34,30,26,18,76,56,36,30.40,30.25,3,0,5,0.00
2013-12-27,52,40,29,27,24,21,79,55,33,30.47,30.35,3,0,5,0.00
2013-12-28,54,41,26,37,29,24,93,66,38,30.41,30.10,4,0,6,0.00
2013-12-29,51,45,41,49,44,39,97,94,74,30.12,29.78,6,1,8,1.61
2013-12-30,52,44,36,46,42,35,98,90,72,30.12,29.94,4,0,4,0.00
2013-12-31,50,44,36,44,34,28,95,72,42,30.36,30.09,3,0,5,0.00
2014-1-1,50,40,32,36,32,30,92,75,53,30.39,30.14,1,0,2,0.00
2014-1-2,48,44,38,46,42,26,97,90,63,30.14,29.64,5,0,12,0.16